ハバロフスク空港の過去48時間の天気

ハバロフスク空港 (Habarovsk)

現在時刻: 9/17 01:16 +10 (9/16 15:16 UTC) 以下の時間は現地時間です。

過去48時間のMETAR気象情報
時間 風向 風速(m/s) 視程 気温(℃) 湿度(%) 気圧(hPa) 天気現象
17 01:00 西南西 4 10km以上 7 76 1013
17 00:30 西南西 5 10km以上 9 71 1013
17 00:00 南西 4 10km以上 7 76 1013
16 23:30 南西 2 10km以上 8 76 1013
16 23:00 西 3 10km以上 8 71 1012
16 22:30 西 4 10km以上 10 58 1012
16 22:00 西 5 10km以上 11 50 1012
16 21:30 西 6 10km以上 12 44 1012
16 21:00 西 7 10km以上 12 44 1012
16 20:30 西 6 10km以上 12 44 1011
16 20:00 西 6 10km以上 12 44 1011
16 19:30 西 5 10km以上 12 44 1011
16 19:00 西 6 10km以上 13 41 1011
16 18:30 西 6 10km以上 14 38 1010
16 18:00 西 8 10km以上 15 33 1010
16 17:30 西 8 10km以上 15 29 1010
16 17:00 西南西 8 10km以上 16 27 1010
16 16:30 西 8 10km以上 16 27 1010
16 16:00 西 8 10km以上 17 25 1009
16 15:30 西 8 10km以上 17 29 1009
16 15:00 西 8 10km以上 17 32 1009
16 14:30 西北西 7 10km以上 17 34 1009
16 14:00 西 6 10km以上 17 42 1009
16 13:30 西北西 7 10km以上 17 42 1009
16 13:00 西 6 10km以上 17 42 1009
16 12:30 北西 6 10km以上 17 48 1009
16 12:00 西 5 10km以上 16 68 1009
16 11:30 西 6 10km以上 16 72 1009
16 11:00 西 6 10km以上 17 63 1009
16 10:30 西南西 6 10km以上 16 68 1009
16 10:00 西南西 5 10km以上 15 77 1009
16 09:30 西南西 3 10km以上 14 88 1009 弱いしゅう雨
16 09:00 西 4 10km以上 14 82 1009 弱いしゅう雨
16 08:30 西南西 4 9000m 14 82 1008 弱いしゅう雨
16 08:00 西南西 4 10km以上 15 77 1008
16 07:30 西南西 3 10km以上 14 77 1008
16 07:00 西南西 2 10km以上 13 77 1008
16 06:30 南西 3 10km以上 13 77 1007
16 06:00 南西 2 10km以上 12 77 1007
16 05:30 南南西 3 10km以上 13 72 1007
16 05:00 2 10km以上 13 72 1007
16 04:30 3 10km以上 14 67 1007
16 04:00 南西 5 10km以上 13 72 1007
16 03:30 南南西 3 10km以上 13 72 1007
16 03:00 3 10km以上 12 77 1007
16 02:30 南南東 2 10km以上 11 82 1007
16 02:00 南南東 2 10km以上 11 82 1008
16 01:30 2 10km以上 12 77 1008
16 01:00 南南東 2 10km以上 13 77 1008
16 00:30 2 10km以上 13 77 1008
16 00:00 2 10km以上 13 77 1008
15 23:30 2 10km以上 14 72 1008
15 23:00 南南西 3 10km以上 15 67 1008
15 22:30 2 10km以上 15 67 1008
15 22:00 2 10km以上 16 63 1008
15 21:30 3 10km以上 16 63 1009
15 21:00 2 10km以上 16 63 1009
15 20:30 2 10km以上 17 59 1009
15 20:00 3 10km以上 17 59 1009
15 19:30 2 10km以上 17 63 1009
15 19:00 2 10km以上 19 52 1009
15 18:30 南南西 2 10km以上 20 46 1009
15 18:00 南南西 4 10km以上 21 43 1009
15 17:30 南西 4 10km以上 22 43 1009
15 17:00 南西 5 10km以上 22 43 1009
15 16:30 南西 5 10km以上 22 43 1010
15 16:00 西南西 7 10km以上 23 41 1010
15 15:30 南西 6 10km以上 23 41 1010
15 15:00 南西 6 10km以上 22 43 1010
15 14:30 西南西 5 10km以上 23 44 1011
15 14:00 西 5 10km以上 22 50 1011
15 13:30 西南西 3 10km以上 22 50 1011
15 13:00 南西 3 10km以上 22 50 1011
15 12:30 南西 4 10km以上 21 53 1011
15 12:00 西南西 6 10km以上 20 53 1012
15 11:30 南西 6 10km以上 20 53 1012
15 11:00 南西 5 10km以上 19 56 1012
15 10:30 西南西 5 10km以上 19 60 1012
15 10:00 西南西 5 10km以上 18 64 1012
15 09:30 南西 4 10km以上 17 72 1012
15 09:00 南西 4 10km以上 17 77 1012
15 08:30 南西 4 10km以上 16 77 1012
15 08:00 南西 3 10km以上 15 82 1012
15 07:30 南西 3 10km以上 12 94 1012
15 07:00 西南西 3 10km以上 11 87 1012
15 06:30 南西 3 10km以上 12 94 1012
15 06:00 南西 4 10km以上 11 94 1012
15 05:30 南西 3 10km以上 12 88 1011
UHHH 161500Z 24004MPS CAVOK 07/03 Q1013 R23L/090060 NOSIG RMK QFE753/1004
UHHH 161430Z 24005MPS 220V280 CAVOK 09/04 Q1013 R23L/090060 NOSIG RMK QFE753/1004
UHHH 161400Z 23004MPS CAVOK 07/03 Q1013 R23L/090060 NOSIG RMK QFE753/1004
UHHH 161330Z 23002MPS 190V260 CAVOK 08/04 Q1013 R23L/090060 NOSIG RMK QFE753/1004
UHHH 161300Z 26003MPS CAVOK 08/03 Q1012 R23L/090060 NOSIG RMK QFE753/1004
UHHH 161230Z 26004MPS CAVOK 10/02 Q1012 R23L/090060 NOSIG RMK QFE753/1004
UHHH 161200Z 26005MPS CAVOK 11/01 Q1012 R23L/090060 NOSIG RMK QFE752/1003
UHHH 161130Z 26006MPS CAVOK 12/00 Q1012 R23L/090060 NOSIG RMK QFE752/1003
UHHH 161100Z 27007MPS CAVOK 12/M00 Q1012 R23L/090060 NOSIG RMK QFE752/1003
UHHH 161030Z 26006MPS CAVOK 12/M00 Q1011 R23L/090060 NOSIG RMK QFE752/1003
UHHH 161000Z 26006MPS CAVOK 12/M00 Q1011 R23L/090060 NOSIG RMK QFE752/1003
UHHH 160930Z 26005MPS CAVOK 12/00 Q1011 R23L/090060 NOSIG RMK QFE752/1002
UHHH 160900Z 26006MPS CAVOK 13/00 Q1011 R23L/090060 NOSIG RMK QFE751/1002
UHHH 160830Z 26006MPS CAVOK 14/00 Q1010 R23L/090060 NOSIG RMK QFE751/1002
UHHH 160800Z 26008MPS CAVOK 15/M01 Q1010 R23L/090060 NOSIG RMK QFE751/1002
UHHH 160730Z 26008MPS CAVOK 15/M03 Q1010 R23L/090060 NOSIG RMK QFE751/1001
UHHH 160700Z 25008MPS CAVOK 16/M03 Q1010 R23L/090060 NOSIG RMK QFE751/1001
UHHH 160630Z 27008MPS CAVOK 16/M03 Q1010 R23L/090060 NOSIG RMK QFE751/1001
UHHH 160600Z 26008MPS CAVOK 17/M03 Q1009 WS R23L R23L/090060 NOSIG RMK QFE750/1001
UHHH 160530Z 26008G14MPS CAVOK 17/M01 Q1009 WS R23L R23L/090060 NOSIG RMK QFE750/1001
UHHH 160500Z 26008MPS CAVOK 17/M00 Q1009 R23L/090060 NOSIG RMK QFE750/1001
UHHH 160430Z 29007MPS 250V310 CAVOK 17/01 Q1009 R23L/090060 NOSIG RMK QFE750/1001
UHHH 160400Z 28006MPS CAVOK 17/04 Q1009 R23L/090060 NOSIG RMK QFE750/1001
UHHH 160330Z 29007MPS 260V320 9999 FEW030 17/04 Q1009 R23L/090060 NOSIG RMK QFE750/1001
UHHH 160300Z 28006MPS 9999 FEW030 17/04 Q1009 R23L/090060 NOSIG RMK QFE750/1001
UHHH 160230Z 31006MPS 9999 FEW031 17/06 Q1009 R23L/090060 NOSIG RMK QFE750/1001
UHHH 160200Z 27005MPS 9999 SCT023 16/10 Q1009 R23L/090060 NOSIG RMK QFE750/1001
UHHH 160130Z 28006MPS 9999 SCT023 16/11 Q1009 R23L/090060 NOSIG RMK QFE750/1001
UHHH 160100Z 26006MPS 9999 FEW025 17/10 Q1009 R23L/190050 NOSIG RMK QFE750/1001
UHHH 160030Z 25006MPS 9999 FEW020CB 16/10 Q1009 R23L/190050 NOSIG RMK QFE750/1001
UHHH 160000Z 25005MPS 210V270 9999 FEW016CB 15/11 Q1009 R23L/290045 NOSIG RMK QFE750/1001
UHHH 152330Z 25003MPS 9999 -SHRA SCT011CB 14/12 Q1009 R23L/290045 NOSIG RMK QFE750/1000
UHHH 152300Z 27004MPS 9999 -SHRA SCT015CB 14/11 Q1009 R23L/290045 NOSIG RMK QFE750/1000
UHHH 152230Z 25004MPS 9000 -SHRA FEW030CB 14/11 Q1008 R23L/290045 NOSIG RMK QFE750/1000
UHHH 152200Z 25004MPS 9999 FEW033CB 15/11 Q1008 R23L/090060 NOSIG RMK QFE750/1000
UHHH 152130Z 25003MPS CAVOK 14/10 Q1008 R23L/090060 NOSIG RMK QFE750/1000
UHHH 152100Z 24002MPS CAVOK 13/09 Q1008 R23L/090060 NOSIG RMK QFE749/0999
UHHH 152030Z 22003MPS 180V240 9999 FEW035CB 13/09 Q1007 R23L/090060 NOSIG RMK QFE749/0999
UHHH 152000Z 22002MPS CAVOK 12/08 Q1007 R23L/090060 NOSIG RMK QFE749/0999
UHHH 151930Z 20003MPS 170V230 CAVOK 13/08 Q1007 R23L/090060 NOSIG RMK QFE748/0998
UHHH 151900Z 19002MPS 170V230 CAVOK 13/08 Q1007 R23L/090060 NOSIG RMK QFE748/0998
UHHH 151830Z 18003MPS 150V220 CAVOK 14/08 Q1007 R23L/090060 NOSIG RMK QFE748/0998
UHHH 151800Z 23005MPS CAVOK 13/08 Q1007 R23L/090060 NOSIG RMK QFE749/0999
UHHH 151730Z 21003MPS 170V240 CAVOK 13/08 Q1007 R23L/090060 NOSIG RMK QFE749/0998
UHHH 151700Z 19003MPS 160V220 CAVOK 12/08 Q1007 R23L/090060 NOSIG RMK QFE749/0999
UHHH 151630Z 16002MPS 110V230 CAVOK 11/08 Q1007 R23L/090060 NOSIG RMK QFE749/0998
UHHH 151600Z 15002MPS 110V180 CAVOK 11/08 Q1008 R23L/090060 NOSIG RMK QFE749/0999
UHHH 151530Z 17002MPS 150V210 CAVOK 12/08 Q1008 R23L/090060 NOSIG RMK QFE749/0999
UHHH 151500Z 16002MPS CAVOK 13/09 Q1008 R23L/090060 NOSIG RMK QFE749/0999
UHHH 151430Z 17002MPS 140V220 CAVOK 13/09 Q1008 R23L/090060 NOSIG RMK QFE749/0999
UHHH 151400Z 17002MPS 140V210 CAVOK 13/09 Q1008 R23L/090060 NOSIG RMK QFE750/1000
UHHH 151330Z 17002MPS CAVOK 14/09 Q1008 R23L/090060 NOSIG RMK QFE750/1000
UHHH 151300Z 20003MPS CAVOK 15/09 Q1008 R23L/090060 NOSIG RMK QFE750/1000
UHHH 151230Z 18002MPS 160V220 CAVOK 15/09 Q1008 R23L/090060 NOSIG RMK QFE750/1000
UHHH 151200Z 19002MPS 160V230 CAVOK 16/09 Q1008 R23L/090060 NOSIG RMK QFE750/1000
UHHH 151130Z 19003MPS CAVOK 16/09 Q1009 R23L/090060 NOSIG RMK QFE750/1000
UHHH 151100Z 18002MPS 150V210 CAVOK 16/09 Q1009 R23L/090060 NOSIG RMK QFE750/1000
UHHH 151030Z 18002MPS 160V220 CAVOK 17/09 Q1009 R23L/090060 NOSIG RMK QFE750/1000
UHHH 151000Z 19003MPS CAVOK 17/09 Q1009 R23L/090060 NOSIG RMK QFE750/1000
UHHH 150930Z 17002MPS 130V190 CAVOK 17/10 Q1009 R23L/090060 NOSIG RMK QFE750/1000
UHHH 150900Z 19002MPS CAVOK 19/09 Q1009 R23L/090060 NOSIG RMK QFE750/1000
UHHH 150830Z 20002MPS CAVOK 20/08 Q1009 R23L/090060 NOSIG RMK QFE750/1000
UHHH 150800Z 21004MPS 160V240 CAVOK 21/08 Q1009 R23L/090060 NOSIG RMK QFE750/1001
UHHH 150730Z 22004MPS CAVOK 22/09 Q1009 R23L/090060 NOSIG RMK QFE750/1001
UHHH 150700Z 23005MPS CAVOK 22/09 Q1009 R23L/090060 NOSIG RMK QFE750/1001
UHHH 150630Z 23005MPS CAVOK 22/09 Q1010 R23L/090060 NOSIG RMK QFE751/1001
UHHH 150600Z 24007MPS 9999 FEW034 23/09 Q1010 R23L/090060 NOSIG RMK QFE751/1001
UHHH 150530Z 23006MPS 9999 FEW034 23/09 Q1010 R23L/090060 NOSIG RMK QFE751/1002
UHHH 150500Z 23006MPS 9999 FEW033 22/09 Q1010 R23L/090060 NOSIG RMK QFE751/1002
UHHH 150430Z 24005MPS 9999 FEW033 23/10 Q1011 R23L/090060 NOSIG RMK QFE751/1002
UHHH 150400Z 26005MPS 9999 FEW033 22/11 Q1011 R23L/090060 NOSIG RMK QFE752/1002
UHHH 150330Z 24003MPS 160V300 CAVOK 22/11 Q1011 R23L/090060 NOSIG RMK QFE752/1003
UHHH 150300Z 23003MPS 160V280 CAVOK 22/11 Q1011 R23L/090060 NOSIG RMK QFE752/1003
UHHH 150230Z 23004MPS 200V270 CAVOK 21/11 Q1011 R23L/090060 NOSIG RMK QFE752/1003
UHHH 150200Z 24006MPS CAVOK 20/10 Q1012 R23L/090060 NOSIG RMK QFE752/1003
UHHH 150130Z 23006MPS CAVOK 20/10 Q1012 R23L/090060 NOSIG RMK QFE752/1003
UHHH 150100Z 23005MPS CAVOK 19/10 Q1012 R23L/090060 NOSIG RMK QFE752/1003
UHHH 150030Z 24005MPS 210V270 CAVOK 19/11 Q1012 R23L/090060 NOSIG RMK QFE753/1004
UHHH 150000Z 25005MPS CAVOK 18/11 Q1012 R23L/090060 NOSIG RMK QFE752/1003
UHHH 142330Z 22004MPS CAVOK 17/12 Q1012 R23L/090060 NOSIG RMK QFE752/1003
UHHH 142300Z 23004MPS CAVOK 17/13 Q1012 R23L/090060 NOSIG RMK QFE752/1003
UHHH 142230Z 23004MPS CAVOK 16/12 Q1012 R23L/090060 NOSIG RMK QFE752/1003
UHHH 142200Z 23003MPS CAVOK 15/12 Q1012 R23L/090060 NOSIG RMK QFE753/1004
UHHH 142130Z 22003MPS CAVOK 12/11 Q1012 R23L/090060 NOSIG RMK QFE752/1003
UHHH 142100Z 24003MPS CAVOK 11/09 Q1012 R23L/090060 NOSIG RMK QFE752/1003
UHHH 142030Z 22003MPS CAVOK 12/11 Q1012 R23L/090060 NOSIG RMK QFE752/1003
UHHH 142000Z 23004MPS CAVOK 11/10 Q1012 R23L/090060 NOSIG RMK QFE752/1003
UHHH 141930Z 23003MPS CAVOK 12/10 Q1011 R23L/090060 NOSIG RMK QFE752/1003